createdAt,value
2023-02-04T00:01:07.957Z,4.50
2023-02-04T00:03:56.765Z,4.40
2023-02-04T00:06:44.391Z,4.30
2023-02-04T00:09:31.776Z,4.30
2023-02-04T00:12:19.433Z,4.20
2023-02-04T00:15:07.778Z,4.20
2023-02-04T00:17:55.566Z,4.10
2023-02-04T00:20:44.429Z,4.00
2023-02-04T00:23:31.796Z,4.00
2023-02-04T00:26:19.299Z,3.90
2023-02-04T00:29:06.931Z,3.90
2023-02-04T00:31:54.390Z,3.90
2023-02-04T00:34:42.348Z,3.90
2023-02-04T00:37:31.445Z,3.90
2023-02-04T00:40:19.252Z,3.80
2023-02-04T00:43:06.735Z,3.80
2023-02-04T00:45:54.269Z,3.70
2023-02-04T00:48:41.750Z,3.70
2023-02-04T00:51:29.077Z,3.60
2023-02-04T00:54:18.108Z,3.60
2023-02-04T00:57:07.425Z,3.50
2023-02-04T00:59:54.867Z,3.40
2023-02-04T01:02:42.629Z,3.30
2023-02-04T01:05:30.425Z,3.20
2023-02-04T01:08:17.998Z,3.10
2023-02-04T01:11:07.520Z,3.10
2023-02-04T01:13:55.540Z,3.10
2023-02-04T01:16:43.223Z,3.00
2023-02-04T01:19:30.638Z,3.00
2023-02-04T01:22:18.141Z,3.00
2023-02-04T01:25:06.554Z,3.00
2023-02-04T01:28:04.875Z,2.90
2023-02-04T01:30:52.777Z,2.90
2023-02-04T01:33:42.069Z,2.80
2023-02-04T01:36:29.761Z,2.70
2023-02-04T01:39:17.502Z,2.40
2023-02-04T01:42:07.984Z,2.10
2023-02-04T01:44:57.164Z,1.90
2023-02-04T01:47:45.455Z,1.80
2023-02-04T01:50:33.625Z,1.70
2023-02-04T01:53:24.352Z,1.60
2023-02-04T01:56:18.605Z,1.50
2023-02-04T01:59:13.243Z,1.40
2023-02-04T02:02:01.934Z,1.40
2023-02-04T02:04:49.557Z,1.30
2023-02-04T02:07:37.248Z,1.30
2023-02-04T02:10:26.012Z,1.30
2023-02-04T02:13:15.975Z,1.30
2023-02-04T02:16:03.729Z,1.20
2023-02-04T02:18:54.554Z,1.20
2023-02-04T02:21:48.304Z,1.20
2023-02-04T02:24:38.043Z,1.20
2023-02-04T02:27:25.488Z,1.20
2023-02-04T02:30:17.760Z,1.10
2023-02-04T02:33:06.234Z,1.10
2023-02-04T02:35:54.092Z,1.10
2023-02-04T02:38:42.026Z,1.10
2023-02-04T02:41:31.542Z,1.10
2023-02-04T02:44:20.248Z,1.10
2023-02-04T02:47:08.106Z,1.00
2023-02-04T02:49:56.408Z,1.00
2023-02-04T02:52:44.399Z,1.00
2023-02-04T02:55:32.616Z,1.10
2023-02-04T02:58:24.861Z,1.00
2023-02-04T03:01:12.931Z,1.00
2023-02-04T03:04:00.745Z,1.00
2023-02-04T03:06:48.332Z,1.00
2023-02-04T03:09:36.802Z,1.00
2023-02-04T03:12:24.446Z,1.00
2023-02-04T03:15:14.359Z,1.00
2023-02-04T03:18:02.619Z,1.00
2023-02-04T03:20:51.674Z,1.00
2023-02-04T03:23:39.728Z,0.90
2023-02-04T03:26:28.584Z,0.90
2023-02-04T03:29:16.678Z,0.80
2023-02-04T03:32:06.531Z,0.80
2023-02-04T03:34:56.183Z,0.70
2023-02-04T03:37:44.075Z,0.80
2023-02-04T03:40:32.003Z,0.70
2023-02-04T03:43:19.877Z,0.70
2023-02-04T03:46:07.527Z,0.70
2023-02-04T03:48:56.269Z,0.60
2023-02-04T03:51:44.047Z,0.60
2023-02-04T03:54:31.250Z,0.60
2023-02-04T03:57:18.582Z,0.60
2023-02-04T04:00:06.591Z,0.70
2023-02-04T04:02:59.947Z,0.70
2023-02-04T04:05:48.801Z,0.60
2023-02-04T04:08:36.455Z,0.60
2023-02-04T04:11:23.830Z,0.70
2023-02-04T04:14:11.195Z,0.60
2023-02-04T04:16:58.949Z,0.60
2023-02-04T04:19:46.353Z,0.60
2023-02-04T04:22:35.212Z,0.70
2023-02-04T04:25:22.848Z,0.60
2023-02-04T04:28:10.228Z,0.60
2023-02-04T04:30:57.586Z,0.70
2023-02-04T04:33:45.253Z,0.70
2023-02-04T04:36:33.037Z,0.60
2023-02-04T04:39:22.135Z,0.70
2023-02-04T04:42:09.808Z,0.60
2023-02-04T04:44:57.356Z,0.60
2023-02-04T04:47:44.993Z,0.60
2023-02-04T04:50:32.843Z,0.60
2023-02-04T04:53:20.521Z,0.60
2023-02-04T04:56:09.462Z,0.60
2023-02-04T04:58:56.784Z,0.60
2023-02-04T05:01:44.146Z,0.60
2023-02-04T05:04:31.463Z,0.60
2023-02-04T05:07:19.065Z,0.50
2023-02-04T05:10:07.311Z,0.50
2023-02-04T05:12:55.953Z,0.60
2023-02-04T05:15:43.551Z,0.50
2023-02-04T05:18:30.973Z,0.50
2023-02-04T05:21:18.785Z,0.50
2023-02-04T05:24:06.906Z,0.50
2023-02-04T05:26:54.157Z,0.50
2023-02-04T05:29:42.926Z,0.50
2023-02-04T05:32:30.687Z,0.50
2023-02-04T05:35:18.078Z,0.50
2023-02-04T05:38:05.563Z,0.50
2023-02-04T05:40:52.892Z,0.50
2023-02-04T05:43:40.902Z,0.50
2023-02-04T05:46:30.080Z,0.50
2023-02-04T05:49:17.366Z,0.40
2023-02-04T05:52:05.006Z,0.40
2023-02-04T05:54:52.385Z,0.40
2023-02-04T05:57:40.428Z,0.30
2023-02-04T06:00:28.183Z,0.30
2023-02-04T06:03:19.593Z,0.30
2023-02-04T06:06:07.965Z,0.30
2023-02-04T06:08:55.875Z,0.30
2023-02-04T06:11:43.394Z,0.20
2023-02-04T06:14:31.004Z,0.20
2023-02-04T06:17:18.593Z,0.10
2023-02-04T06:20:08.577Z,0.10
2023-02-04T06:22:55.905Z,0.10
2023-02-04T06:25:43.656Z,0.10
2023-02-04T06:28:31.271Z,0.10
2023-02-04T06:31:18.911Z,0.00
2023-02-04T06:34:07.104Z,0.00
2023-02-04T06:36:56.008Z,0.00
2023-02-04T06:39:43.829Z,0.10
2023-02-04T06:42:31.469Z,0.00
2023-02-04T06:45:18.871Z,0.10
2023-02-04T06:48:06.652Z,0.10
2023-02-04T06:50:54.518Z,0.10
2023-02-04T06:53:44.241Z,0.10
2023-02-04T06:56:31.489Z,0.10
2023-02-04T06:59:18.988Z,0.10
2023-02-04T07:02:08.168Z,0.10
2023-02-04T07:04:55.690Z,0.10
2023-02-04T07:07:42.989Z,0.10
2023-02-04T07:10:33.130Z,0.10
2023-02-04T07:13:21.091Z,0.10
2023-02-04T07:16:09.282Z,0.10
2023-02-04T07:18:56.663Z,0.20
2023-02-04T07:21:44.451Z,0.20
2023-02-04T07:24:32.278Z,0.20
2023-02-04T07:27:21.318Z,0.20
2023-02-04T07:30:10.242Z,0.20
2023-02-04T07:32:57.643Z,0.20
2023-02-04T07:35:45.546Z,0.20
2023-02-04T07:38:33.156Z,0.30
2023-02-04T07:41:21.133Z,0.30
2023-02-04T07:44:10.026Z,0.20
2023-02-04T07:46:57.919Z,0.20
2023-02-04T07:49:45.550Z,0.20
2023-02-04T07:52:32.843Z,0.20
2023-02-04T07:55:20.299Z,0.20
2023-02-04T07:58:08.031Z,0.30
2023-02-04T08:00:57.051Z,0.30
2023-02-04T08:03:44.769Z,0.40
2023-02-04T08:06:32.414Z,0.50
2023-02-04T08:09:19.891Z,0.60
2023-02-04T08:12:07.486Z,0.60
2023-02-04T08:14:55.217Z,0.70
2023-02-04T08:17:43.983Z,0.70
2023-02-04T08:20:32.298Z,0.90
2023-02-04T08:23:20.425Z,1.00
2023-02-04T08:26:08.141Z,1.10
2023-02-04T08:28:56.523Z,1.20
2023-02-04T08:31:44.168Z,1.20
2023-02-04T08:34:33.902Z,1.20
2023-02-04T08:37:21.641Z,1.20
2023-02-04T08:40:10.226Z,1.20
2023-02-04T08:42:57.637Z,1.30
2023-02-04T08:45:44.996Z,1.40
2023-02-04T08:48:32.567Z,1.50
2023-02-04T08:51:21.456Z,1.70
2023-02-04T08:54:09.051Z,1.80
2023-02-04T08:56:56.349Z,1.70
2023-02-04T08:59:45.293Z,1.70
2023-02-04T09:02:32.763Z,1.60
2023-02-04T09:05:20.351Z,1.60
2023-02-04T09:08:09.292Z,1.70
2023-02-04T09:11:00.231Z,1.70
2023-02-04T09:13:47.632Z,1.60
2023-02-04T09:16:35.291Z,1.60
2023-02-04T09:19:25.457Z,1.60
2023-02-04T09:22:13.435Z,1.60
2023-02-04T09:25:02.548Z,1.60
2023-02-04T09:27:50.159Z,1.70
2023-02-04T09:30:37.951Z,1.70
2023-02-04T09:33:25.666Z,1.60
2023-02-04T09:36:13.626Z,1.60
2023-02-04T09:39:00.941Z,1.60
2023-02-04T09:41:49.741Z,1.50
2023-02-04T09:44:38.967Z,1.60
2023-02-04T09:47:28.155Z,1.60
2023-02-04T09:50:17.063Z,1.50
2023-02-04T09:53:06.701Z,1.50
2023-02-04T09:55:54.143Z,1.50
2023-02-04T09:58:44.182Z,1.40
2023-02-04T10:01:31.737Z,1.40
2023-02-04T10:04:19.890Z,1.40
2023-02-04T10:07:13.288Z,1.50
2023-02-04T10:10:00.747Z,1.50
2023-02-04T10:12:49.698Z,1.50
2023-02-04T10:15:39.407Z,1.60
2023-02-04T10:18:30.038Z,1.60
2023-02-04T10:21:21.517Z,1.60
2023-02-04T10:24:16.308Z,1.60
2023-02-04T10:27:11.222Z,1.70
2023-02-04T10:29:59.810Z,1.70
2023-02-04T10:32:48.952Z,1.90
2023-02-04T10:35:46.531Z,2.00
2023-02-04T10:38:34.020Z,2.00
2023-02-04T10:41:21.528Z,2.00
2023-02-04T10:44:12.469Z,2.10
2023-02-04T10:47:01.100Z,2.20
2023-02-04T10:50:04.761Z,2.30
2023-02-04T10:52:55.507Z,2.40
2023-02-04T10:55:43.618Z,2.50
2023-02-04T10:58:33.669Z,2.40
2023-02-04T11:01:21.046Z,2.50
2023-02-04T11:04:11.386Z,2.60
2023-02-04T11:07:00.828Z,2.70
2023-02-04T11:09:49.430Z,2.90
2023-02-04T11:12:42.909Z,3.00
2023-02-04T11:15:44.604Z,3.00
2023-02-04T11:18:32.479Z,2.70
2023-02-04T11:21:26.413Z,2.50
2023-02-04T11:24:27.123Z,2.40
2023-02-04T11:27:23.107Z,2.30
2023-02-04T11:30:23.801Z,2.20
2023-02-04T11:33:26.118Z,2.20
2023-02-04T11:36:15.661Z,2.20
2023-02-04T11:39:09.815Z,2.10
2023-02-04T11:42:00.450Z,2.00
2023-02-04T11:44:53.295Z,2.00
2023-02-04T11:47:41.364Z,2.00
2023-02-04T11:50:32.331Z,2.10
2023-02-04T11:53:19.857Z,2.10
2023-02-04T11:56:07.352Z,2.30
2023-02-04T11:58:59.263Z,2.30
2023-02-04T12:01:46.764Z,2.20
2023-02-04T12:04:34.809Z,2.20
2023-02-04T12:07:27.916Z,2.40
2023-02-04T12:10:24.348Z,2.50
2023-02-04T12:13:18.673Z,2.50
2023-02-04T12:16:08.793Z,2.50
2023-02-04T12:18:56.439Z,2.30
2023-02-04T12:21:43.914Z,2.20
2023-02-04T12:24:31.605Z,2.10
2023-02-04T12:27:19.303Z,2.10
2023-02-04T12:30:07.735Z,2.20
2023-02-04T12:32:56.568Z,2.20
2023-02-04T12:35:44.537Z,2.40
2023-02-04T12:38:31.999Z,2.50
2023-02-04T12:41:20.010Z,2.60
2023-02-04T12:44:07.637Z,2.50
2023-02-04T12:46:55.609Z,2.40
2023-02-04T12:49:44.542Z,2.50
2023-02-04T12:52:32.326Z,2.80
2023-02-04T12:55:20.486Z,3.00
2023-02-04T12:58:08.542Z,3.10
2023-02-04T13:00:56.356Z,3.40
2023-02-04T13:03:44.009Z,3.60
2023-02-04T13:06:32.783Z,3.50
2023-02-04T13:09:20.435Z,3.20
2023-02-04T13:12:08.401Z,3.00
2023-02-04T13:14:56.122Z,2.80
2023-02-04T13:17:43.604Z,2.70
2023-02-04T13:20:31.460Z,2.50
2023-02-04T13:23:20.291Z,2.50
2023-02-04T13:26:08.914Z,2.40
2023-02-04T13:28:56.484Z,2.40
2023-02-04T13:31:44.145Z,2.30
2023-02-04T13:34:31.818Z,2.30
2023-02-04T13:37:19.187Z,2.20
2023-02-04T13:40:09.558Z,2.00
2023-02-04T13:42:57.262Z,1.80
2023-02-04T13:45:48.844Z,1.80
2023-02-04T13:48:36.723Z,1.70
2023-02-04T13:51:24.386Z,1.70
2023-02-04T13:54:12.525Z,1.70
2023-02-04T13:57:01.266Z,1.70
2023-02-04T13:59:48.986Z,1.50
2023-02-04T14:02:36.551Z,1.30
2023-02-04T14:05:24.270Z,1.10
2023-02-04T14:08:12.133Z,1.00
2023-02-04T14:11:00.149Z,1.00
2023-02-04T14:13:49.189Z,1.10
2023-02-04T14:16:37.985Z,1.30
2023-02-04T14:19:27.814Z,1.50
2023-02-04T14:22:15.345Z,1.60
2023-02-04T14:25:03.452Z,1.60
2023-02-04T14:27:51.091Z,1.60
2023-02-04T14:30:40.173Z,1.60
2023-02-04T14:33:27.820Z,1.50
2023-02-04T14:36:15.481Z,1.50
2023-02-04T14:39:03.108Z,1.10
2023-02-04T14:41:50.453Z,0.80
2023-02-04T14:44:38.038Z,0.50
2023-02-04T14:47:27.074Z,0.40
2023-02-04T14:50:17.695Z,0.30
2023-02-04T14:53:05.390Z,0.30
2023-02-04T14:55:53.121Z,0.40
2023-02-04T14:58:40.927Z,0.40
2023-02-04T15:01:28.666Z,0.40
2023-02-04T15:04:18.547Z,0.30
2023-02-04T15:07:06.145Z,0.30
2023-02-04T15:09:53.666Z,0.40
2023-02-04T15:12:41.470Z,0.40
2023-02-04T15:15:29.115Z,0.50
2023-02-04T15:18:16.935Z,0.50
2023-02-04T15:21:06.351Z,0.50
2023-02-04T15:23:54.073Z,0.50
2023-02-04T15:26:41.567Z,0.50
2023-02-04T15:29:30.552Z,0.60
2023-02-04T15:32:18.171Z,0.50
2023-02-04T15:35:08.287Z,0.60
2023-02-04T15:37:57.565Z,0.60
2023-02-04T15:40:45.389Z,0.60
2023-02-04T15:43:32.696Z,0.70
2023-02-04T15:46:20.123Z,0.70
2023-02-04T15:49:09.152Z,0.70
2023-02-04T15:51:57.682Z,0.60
2023-02-04T15:54:46.561Z,0.60
2023-02-04T15:57:34.372Z,0.50
2023-02-04T16:00:22.942Z,0.50
2023-02-04T16:03:10.488Z,0.30
2023-02-04T16:05:57.985Z,0.30
2023-02-04T16:08:45.307Z,0.20
2023-02-04T16:11:35.933Z,0.10
2023-02-04T16:14:23.297Z,0.20
2023-02-04T16:17:11.431Z,0.10
2023-02-04T16:19:59.286Z,0.00
2023-02-04T16:22:46.771Z,0.00
2023-02-04T16:25:34.469Z,0.00
2023-02-04T16:28:23.539Z,-0.10
2023-02-04T16:31:11.392Z,-0.10
2023-02-04T16:33:59.067Z,-0.10
2023-02-04T16:36:46.518Z,-0.10
2023-02-04T16:39:34.186Z,-0.10
2023-02-04T16:42:21.574Z,-0.10
2023-02-04T16:45:11.352Z,-0.10
2023-02-04T16:47:59.193Z,-0.10
2023-02-04T16:50:46.636Z,0.00
2023-02-04T16:53:34.212Z,-0.10
2023-02-04T16:56:21.676Z,0.00
2023-02-04T16:59:09.159Z,0.00
2023-02-04T17:02:00.814Z,0.10
2023-02-04T17:04:48.739Z,0.10
2023-02-04T17:07:36.476Z,0.10
2023-02-04T17:10:44.329Z,0.10
2023-02-04T17:13:32.051Z,0.10
2023-02-04T17:16:19.896Z,0.10
2023-02-04T17:19:08.860Z,0.10
2023-02-04T17:21:56.403Z,0.10
2023-02-04T17:24:43.950Z,0.10
2023-02-04T17:27:31.460Z,0.10
2023-02-04T17:30:20.408Z,0.10
2023-02-04T17:33:08.024Z,0.20
2023-02-04T17:35:56.770Z,0.30
2023-02-04T17:38:44.239Z,0.30
2023-02-04T17:41:31.513Z,0.30
2023-02-04T17:44:20.159Z,0.40
2023-02-04T17:47:08.437Z,0.30
2023-02-04T17:49:56.455Z,0.40
2023-02-04T17:52:45.309Z,0.30
2023-02-04T17:55:35.421Z,0.30
2023-02-04T17:58:25.991Z,0.40
2023-02-04T18:01:18.821Z,0.40
2023-02-04T18:04:12.172Z,0.40
2023-02-04T18:06:59.891Z,0.40
2023-02-04T18:09:48.645Z,0.40
2023-02-04T18:12:36.907Z,0.40
2023-02-04T18:15:27.633Z,0.50
2023-02-04T18:18:24.404Z,0.40
2023-02-04T18:21:18.147Z,0.40
2023-02-04T18:24:18.236Z,0.40
2023-02-04T18:27:16.894Z,0.40
2023-02-04T18:30:18.020Z,0.40
2023-02-04T18:33:12.972Z,0.40
2023-02-04T18:36:03.162Z,0.40
2023-02-04T18:38:51.553Z,0.40
2023-02-04T18:41:41.455Z,0.40
2023-02-04T18:44:34.089Z,0.40
2023-02-04T18:47:31.774Z,0.40
2023-02-04T18:50:28.219Z,0.20
2023-02-04T18:53:23.230Z,0.10
2023-02-04T18:56:15.223Z,0.00
2023-02-04T18:59:02.859Z,-0.10
2023-02-04T19:01:52.832Z,-0.20
2023-02-04T19:04:40.343Z,-0.20
2023-02-04T19:07:28.969Z,-0.20
2023-02-04T19:10:29.610Z,-0.20
2023-02-04T19:13:22.236Z,-0.20
2023-02-04T19:16:23.478Z,-0.10
2023-02-04T19:19:37.749Z,-0.10
2023-02-04T19:22:43.792Z,-0.10
2023-02-04T19:25:33.826Z,0.00
2023-02-04T19:28:29.028Z,0.00
2023-02-04T19:31:18.306Z,0.00
2023-02-04T19:34:25.187Z,0.00
2023-02-04T19:37:22.749Z,0.10
2023-02-04T19:40:29.885Z,0.00
2023-02-04T19:43:20.880Z,0.00
2023-02-04T19:46:19.577Z,0.10
2023-02-04T19:49:16.018Z,0.10
2023-02-04T19:52:08.201Z,0.10
2023-02-04T19:55:21.047Z,0.00
2023-02-04T19:58:17.686Z,0.00
2023-02-04T20:01:06.007Z,-0.10
2023-02-04T20:03:53.465Z,-0.20
2023-02-04T20:06:45.123Z,-0.20
2023-02-04T20:09:35.812Z,-0.20
2023-02-04T20:12:26.088Z,-0.20
2023-02-04T20:15:19.377Z,-0.20
2023-02-04T20:18:15.693Z,-0.10
2023-02-04T20:21:12.014Z,-0.20
2023-02-04T20:23:59.826Z,-0.20
2023-02-04T20:26:47.567Z,-0.30
2023-02-04T20:29:36.398Z,-0.40
2023-02-04T20:32:26.467Z,-0.40
2023-02-04T20:35:55.967Z,-0.50
2023-02-04T20:38:43.377Z,-0.50
2023-02-04T20:41:38.104Z,-0.50
2023-02-04T20:44:29.326Z,-0.60
2023-02-04T20:47:21.022Z,-0.70
2023-02-04T20:50:41.310Z,-0.70
2023-02-04T20:53:32.361Z,-0.80
2023-02-04T20:56:28.221Z,-0.80
2023-02-04T20:59:34.818Z,-0.80
2023-02-04T21:02:23.539Z,-0.90
2023-02-04T21:05:24.148Z,-0.90
2023-02-04T21:08:27.679Z,-0.90
2023-02-04T21:11:15.127Z,-1.00
2023-02-04T21:14:02.547Z,-1.00
2023-02-04T21:16:50.154Z,-1.00
2023-02-04T21:19:38.870Z,-1.00
2023-02-04T21:22:26.523Z,-1.00
2023-02-04T21:25:13.873Z,-1.00
2023-02-04T21:28:01.710Z,-1.00
2023-02-04T21:30:49.390Z,-1.10
2023-02-04T21:33:36.828Z,-1.10
2023-02-04T21:36:28.026Z,-1.00
2023-02-04T21:39:15.535Z,-1.10
2023-02-04T21:42:11.013Z,-1.10
2023-02-04T21:45:01.420Z,-1.10
2023-02-04T21:47:51.096Z,-1.10
2023-02-04T21:50:39.622Z,-1.20
2023-02-04T21:53:28.547Z,-1.20
2023-02-04T21:56:16.427Z,-1.20
2023-02-04T21:59:04.953Z,-1.20
2023-02-04T22:01:52.704Z,-1.20
2023-02-04T22:04:40.122Z,-1.20
2023-02-04T22:07:27.709Z,-1.30
2023-02-04T22:10:20.494Z,-1.30
2023-02-04T22:13:25.155Z,-1.30
2023-02-04T22:16:12.704Z,-1.20
2023-02-04T22:19:00.459Z,-1.20
2023-02-04T22:21:47.991Z,-1.10
2023-02-04T22:24:35.310Z,-1.10
2023-02-04T22:27:24.396Z,-1.10
2023-02-04T22:30:13.800Z,-1.10
2023-02-04T22:33:02.761Z,-1.00
2023-02-04T22:35:50.107Z,-1.00
2023-02-04T22:38:37.760Z,-1.00
2023-02-04T22:41:25.205Z,-1.00
2023-02-04T22:44:14.360Z,-1.00
2023-02-04T22:47:02.302Z,-1.00
2023-02-04T22:49:49.618Z,-0.90
2023-02-04T22:52:37.059Z,-1.00
2023-02-04T22:55:24.630Z,-0.90
2023-02-04T22:58:12.261Z,-0.90
2023-02-04T23:01:01.067Z,-0.90
2023-02-04T23:03:49.926Z,-1.00
2023-02-04T23:06:38.782Z,-1.00
2023-02-04T23:09:26.503Z,-1.10
2023-02-04T23:12:14.164Z,-1.10
2023-02-04T23:15:01.903Z,-1.20
2023-02-04T23:17:52.424Z,-1.20
2023-02-04T23:20:41.795Z,-1.20
2023-02-04T23:23:31.609Z,-1.20
2023-02-04T23:26:19.844Z,-1.30
2023-02-04T23:29:07.350Z,-1.30
2023-02-04T23:31:55.117Z,-1.30
2023-02-04T23:34:44.270Z,-1.30
2023-02-04T23:37:32.330Z,-1.30
2023-02-04T23:40:19.846Z,-1.20
2023-02-04T23:43:09.326Z,-1.20
2023-02-04T23:46:00.027Z,-1.20
2023-02-04T23:48:47.962Z,-1.20
2023-02-04T23:51:36.902Z,-1.20
2023-02-04T23:54:24.739Z,-1.20
2023-02-04T23:57:12.620Z,-1.20
